sensor_id;sensor_type;location;lat;lon;timestamp;P1;durP1;ratioP1;P2;durP2;ratioP2
63201;SDS011;49296;48.188;11.566;2023-07-28T00:00:12;5.35;;;3.20;;
63201;SDS011;49296;48.188;11.566;2023-07-28T00:02:39;5.65;;;3.53;;
63201;SDS011;49296;48.188;11.566;2023-07-28T00:05:05;5.25;;;3.30;;
63201;SDS011;49296;48.188;11.566;2023-07-28T00:07:32;5.10;;;2.70;;
63201;SDS011;49296;48.188;11.566;2023-07-28T00:10:01;5.18;;;3.10;;
63201;SDS011;49296;48.188;11.566;2023-07-28T00:12:27;6.28;;;3.67;;
63201;SDS011;49296;48.188;11.566;2023-07-28T00:14:54;5.68;;;3.88;;
63201;SDS011;49296;48.188;11.566;2023-07-28T00:17:22;5.45;;;3.55;;
63201;SDS011;49296;48.188;11.566;2023-07-28T00:19:48;5.68;;;3.72;;
63201;SDS011;49296;48.188;11.566;2023-07-28T00:22:15;6.05;;;3.80;;
63201;SDS011;49296;48.188;11.566;2023-07-28T00:24:42;5.90;;;3.67;;
63201;SDS011;49296;48.188;11.566;2023-07-28T00:27:09;7.65;;;4.45;;
63201;SDS011;49296;48.188;11.566;2023-07-28T00:29:38;7.65;;;4.55;;
63201;SDS011;49296;48.188;11.566;2023-07-28T00:32:04;7.07;;;4.45;;
63201;SDS011;49296;48.188;11.566;2023-07-28T00:34:33;8.43;;;4.95;;
63201;SDS011;49296;48.188;11.566;2023-07-28T00:36:59;6.25;;;4.50;;
63201;SDS011;49296;48.188;11.566;2023-07-28T00:39:29;7.70;;;5.47;;
63201;SDS011;49296;48.188;11.566;2023-07-28T00:41:55;7.18;;;4.68;;
63201;SDS011;49296;48.188;11.566;2023-07-28T00:44:22;6.10;;;4.22;;
63201;SDS011;49296;48.188;11.566;2023-07-28T00:46:50;6.22;;;4.28;;
63201;SDS011;49296;48.188;11.566;2023-07-28T00:49:16;6.50;;;4.10;;
63201;SDS011;49296;48.188;11.566;2023-07-28T00:51:45;6.35;;;4.00;;
63201;SDS011;49296;48.188;11.566;2023-07-28T00:54:11;5.50;;;3.67;;
63201;SDS011;49296;48.188;11.566;2023-07-28T00:56:38;6.30;;;3.83;;
63201;SDS011;49296;48.188;11.566;2023-07-28T00:59:05;5.35;;;3.60;;
63201;SDS011;49296;48.188;11.566;2023-07-28T01:01:31;5.95;;;3.60;;
63201;SDS011;49296;48.188;11.566;2023-07-28T01:03:58;6.40;;;4.32;;
63201;SDS011;49296;48.188;11.566;2023-07-28T01:06:26;6.90;;;4.00;;
63201;SDS011;49296;48.188;11.566;2023-07-28T01:09:03;5.82;;;3.78;;
63201;SDS011;49296;48.188;11.566;2023-07-28T01:11:32;5.30;;;3.22;;
63201;SDS011;49296;48.188;11.566;2023-07-28T01:13:58;5.57;;;3.63;;
63201;SDS011;49296;48.188;11.566;2023-07-28T01:16:25;8.43;;;4.53;;
63201;SDS011;49296;48.188;11.566;2023-07-28T01:18:51;6.88;;;4.25;;
63201;SDS011;49296;48.188;11.566;2023-07-28T01:21:20;6.93;;;4.43;;
63201;SDS011;49296;48.188;11.566;2023-07-28T01:23:52;6.45;;;4.30;;
63201;SDS011;49296;48.188;11.566;2023-07-28T01:26:30;6.68;;;4.10;;
63201;SDS011;49296;48.188;11.566;2023-07-28T01:28:58;6.65;;;4.10;;
63201;SDS011;49296;48.188;11.566;2023-07-28T01:31:25;7.55;;;4.43;;
63201;SDS011;49296;48.188;11.566;2023-07-28T01:33:52;6.22;;;4.40;;
63201;SDS011;49296;48.188;11.566;2023-07-28T01:36:19;7.25;;;4.80;;
63201;SDS011;49296;48.188;11.566;2023-07-28T01:38:45;6.85;;;4.30;;
63201;SDS011;49296;48.188;11.566;2023-07-28T01:41:12;6.10;;;3.83;;
63201;SDS011;49296;48.188;11.566;2023-07-28T01:43:40;6.18;;;4.20;;
63201;SDS011;49296;48.188;11.566;2023-07-28T01:46:07;6.60;;;4.18;;
63201;SDS011;49296;48.188;11.566;2023-07-28T01:48:33;5.55;;;3.70;;
63201;SDS011;49296;48.188;11.566;2023-07-28T01:51:00;6.45;;;4.03;;
63201;SDS011;49296;48.188;11.566;2023-07-28T01:53:26;7.13;;;4.47;;
63201;SDS011;49296;48.188;11.566;2023-07-28T01:55:53;8.02;;;4.00;;
63201;SDS011;49296;48.188;11.566;2023-07-28T01:58:20;5.55;;;3.60;;
63201;SDS011;49296;48.188;11.566;2023-07-28T02:00:47;5.97;;;3.40;;
63201;SDS011;49296;48.188;11.566;2023-07-28T02:03:14;5.60;;;3.42;;
63201;SDS011;49296;48.188;11.566;2023-07-28T02:05:40;5.38;;;2.83;;
63201;SDS011;49296;48.188;11.566;2023-07-28T02:08:07;6.63;;;3.30;;
63201;SDS011;49296;48.188;11.566;2023-07-28T02:10:34;5.63;;;3.30;;
63201;SDS011;49296;48.188;11.566;2023-07-28T02:13:00;6.53;;;2.90;;
63201;SDS011;49296;48.188;11.566;2023-07-28T02:15:27;6.85;;;3.45;;
63201;SDS011;49296;48.188;11.566;2023-07-28T02:17:55;5.68;;;3.85;;
63201;SDS011;49296;48.188;11.566;2023-07-28T02:20:21;6.68;;;3.47;;
63201;SDS011;49296;48.188;11.566;2023-07-28T02:22:48;7.25;;;3.60;;
63201;SDS011;49296;48.188;11.566;2023-07-28T02:25:14;5.97;;;3.58;;
63201;SDS011;49296;48.188;11.566;2023-07-28T02:27:41;5.97;;;3.58;;
63201;SDS011;49296;48.188;11.566;2023-07-28T02:30:07;6.40;;;3.83;;
63201;SDS011;49296;48.188;11.566;2023-07-28T02:32:35;7.18;;;3.63;;
63201;SDS011;49296;48.188;11.566;2023-07-28T02:35:04;5.43;;;3.42;;
63201;SDS011;49296;48.188;11.566;2023-07-28T02:37:31;7.28;;;3.90;;
63201;SDS011;49296;48.188;11.566;2023-07-28T02:39:58;5.32;;;3.80;;
63201;SDS011;49296;48.188;11.566;2023-07-28T02:42:24;4.85;;;3.03;;
63201;SDS011;49296;48.188;11.566;2023-07-28T02:44:51;6.72;;;3.42;;
63201;SDS011;49296;48.188;11.566;2023-07-28T02:47:18;5.80;;;3.45;;
63201;SDS011;49296;48.188;11.566;2023-07-28T02:49:44;7.28;;;3.70;;
63201;SDS011;49296;48.188;11.566;2023-07-28T02:52:13;5.22;;;3.47;;
63201;SDS011;49296;48.188;11.566;2023-07-28T02:54:39;6.80;;;4.50;;
63201;SDS011;49296;48.188;11.566;2023-07-28T02:57:06;6.75;;;3.72;;
63201;SDS011;49296;48.188;11.566;2023-07-28T02:59:33;6.43;;;4.03;;
63201;SDS011;49296;48.188;11.566;2023-07-28T03:01:59;6.25;;;4.07;;
63201;SDS011;49296;48.188;11.566;2023-07-28T03:04:26;6.85;;;3.90;;
63201;SDS011;49296;48.188;11.566;2023-07-28T03:06:52;7.47;;;3.83;;
63201;SDS011;49296;48.188;11.566;2023-07-28T03:09:20;5.80;;;3.50;;
63201;SDS011;49296;48.188;11.566;2023-07-28T03:11:47;6.28;;;3.45;;
63201;SDS011;49296;48.188;11.566;2023-07-28T03:14:13;5.75;;;3.22;;
63201;SDS011;49296;48.188;11.566;2023-07-28T03:16:40;6.07;;;3.58;;
63201;SDS011;49296;48.188;11.566;2023-07-28T03:19:08;5.50;;;3.30;;
63201;SDS011;49296;48.188;11.566;2023-07-28T03:21:34;6.28;;;3.15;;
63201;SDS011;49296;48.188;11.566;2023-07-28T03:24:01;5.43;;;2.70;;
63201;SDS011;49296;48.188;11.566;2023-07-28T03:26:29;5.30;;;2.67;;
63201;SDS011;49296;48.188;11.566;2023-07-28T03:28:55;5.40;;;3.03;;
63201;SDS011;49296;48.188;11.566;2023-07-28T03:31:22;4.97;;;2.50;;
63201;SDS011;49296;48.188;11.566;2023-07-28T03:33:48;6.32;;;3.03;;
63201;SDS011;49296;48.188;11.566;2023-07-28T03:36:15;6.50;;;2.95;;
63201;SDS011;49296;48.188;11.566;2023-07-28T03:38:41;6.03;;;3.08;;
63201;SDS011;49296;48.188;11.566;2023-07-28T03:41:08;5.50;;;3.30;;
63201;SDS011;49296;48.188;11.566;2023-07-28T03:43:36;6.28;;;3.10;;
63201;SDS011;49296;48.188;11.566;2023-07-28T03:46:02;6.78;;;3.30;;
63201;SDS011;49296;48.188;11.566;2023-07-28T03:48:29;5.97;;;3.70;;
63201;SDS011;49296;48.188;11.566;2023-07-28T03:50:56;5.90;;;4.28;;
63201;SDS011;49296;48.188;11.566;2023-07-28T03:53:22;6.15;;;3.50;;
63201;SDS011;49296;48.188;11.566;2023-07-28T03:55:49;7.68;;;3.88;;
63201;SDS011;49296;48.188;11.566;2023-07-28T03:58:15;7.07;;;3.65;;
63201;SDS011;49296;48.188;11.566;2023-07-28T04:00:43;6.88;;;4.10;;
63201;SDS011;49296;48.188;11.566;2023-07-28T04:03:10;6.57;;;4.03;;
63201;SDS011;49296;48.188;11.566;2023-07-28T04:05:36;6.93;;;3.80;;
63201;SDS011;49296;48.188;11.566;2023-07-28T04:08:03;6.22;;;3.80;;
63201;SDS011;49296;48.188;11.566;2023-07-28T04:10:30;5.70;;;3.67;;
63201;SDS011;49296;48.188;11.566;2023-07-28T04:12:56;6.00;;;3.92;;
63201;SDS011;49296;48.188;11.566;2023-07-28T04:15:23;7.35;;;4.10;;
63201;SDS011;49296;48.188;11.566;2023-07-28T04:17:51;6.60;;;4.03;;
63201;SDS011;49296;48.188;11.566;2023-07-28T04:20:17;7.25;;;3.72;;
63201;SDS011;49296;48.188;11.566;2023-07-28T04:22:44;6.95;;;4.45;;
63201;SDS011;49296;48.188;11.566;2023-07-28T04:25:10;6.03;;;3.80;;
63201;SDS011;49296;48.188;11.566;2023-07-28T04:27:37;5.97;;;3.80;;
63201;SDS011;49296;48.188;11.566;2023-07-28T04:30:04;7.88;;;3.78;;
63201;SDS011;49296;48.188;11.566;2023-07-28T04:32:31;7.35;;;4.25;;
63201;SDS011;49296;48.188;11.566;2023-07-28T04:34:59;6.43;;;4.05;;
63201;SDS011;49296;48.188;11.566;2023-07-28T04:37:25;6.03;;;3.65;;
63201;SDS011;49296;48.188;11.566;2023-07-28T04:39:52;7.38;;;3.60;;
63201;SDS011;49296;48.188;11.566;2023-07-28T04:42:18;8.63;;;3.67;;
63201;SDS011;49296;48.188;11.566;2023-07-28T04:44:45;8.65;;;3.90;;
63201;SDS011;49296;48.188;11.566;2023-07-28T04:47:12;6.75;;;3.97;;
63201;SDS011;49296;48.188;11.566;2023-07-28T04:49:38;6.35;;;3.90;;
63201;SDS011;49296;48.188;11.566;2023-07-28T04:52:07;7.88;;;4.85;;
63201;SDS011;49296;48.188;11.566;2023-07-28T04:54:34;7.80;;;4.00;;
63201;SDS011;49296;48.188;11.566;2023-07-28T04:57:00;6.50;;;3.70;;
63201;SDS011;49296;48.188;11.566;2023-07-28T04:59:27;7.00;;;3.80;;
63201;SDS011;49296;48.188;11.566;2023-07-28T05:01:53;7.15;;;3.90;;
63201;SDS011;49296;48.188;11.566;2023-07-28T05:04:20;7.38;;;4.30;;
63201;SDS011;49296;48.188;11.566;2023-07-28T05:06:46;6.10;;;4.47;;
63201;SDS011;49296;48.188;11.566;2023-07-28T05:09:14;8.45;;;3.70;;
63201;SDS011;49296;48.188;11.566;2023-07-28T05:11:41;7.10;;;3.95;;
63201;SDS011;49296;48.188;11.566;2023-07-28T05:14:07;5.90;;;3.30;;
63201;SDS011;49296;48.188;11.566;2023-07-28T05:16:34;5.28;;;2.97;;
63201;SDS011;49296;48.188;11.566;2023-07-28T05:19:01;5.47;;;3.30;;
63201;SDS011;49296;48.188;11.566;2023-07-28T05:21:28;4.95;;;3.00;;
63201;SDS011;49296;48.188;11.566;2023-07-28T05:23:54;5.93;;;3.05;;
63201;SDS011;49296;48.188;11.566;2023-07-28T05:26:22;6.78;;;3.88;;
63201;SDS011;49296;48.188;11.566;2023-07-28T05:28:49;6.55;;;3.63;;
63201;SDS011;49296;48.188;11.566;2023-07-28T05:31:16;4.78;;;3.08;;
63201;SDS011;49296;48.188;11.566;2023-07-28T05:33:43;5.00;;;2.67;;
63201;SDS011;49296;48.188;11.566;2023-07-28T05:36:09;5.00;;;2.63;;
63201;SDS011;49296;48.188;11.566;2023-07-28T05:38:36;5.40;;;3.05;;
63201;SDS011;49296;48.188;11.566;2023-07-28T05:41:03;4.60;;;2.35;;
63201;SDS011;49296;48.188;11.566;2023-07-28T05:43:31;5.20;;;2.88;;
63201;SDS011;49296;48.188;11.566;2023-07-28T05:45:59;5.35;;;3.03;;
63201;SDS011;49296;48.188;11.566;2023-07-28T05:48:26;5.93;;;2.70;;
63201;SDS011;49296;48.188;11.566;2023-07-28T05:50:56;4.00;;;2.47;;
63201;SDS011;49296;48.188;11.566;2023-07-28T05:53:23;4.90;;;2.72;;
63201;SDS011;49296;48.188;11.566;2023-07-28T05:55:49;5.65;;;3.00;;
63201;SDS011;49296;48.188;11.566;2023-07-28T05:58:18;4.93;;;2.50;;
63201;SDS011;49296;48.188;11.566;2023-07-28T06:00:46;5.63;;;2.72;;
63201;SDS011;49296;48.188;11.566;2023-07-28T06:03:13;5.20;;;2.72;;
63201;SDS011;49296;48.188;11.566;2023-07-28T06:05:39;6.20;;;2.90;;
63201;SDS011;49296;48.188;11.566;2023-07-28T06:08:07;4.35;;;2.45;;
63201;SDS011;49296;48.188;11.566;2023-07-28T06:10:33;4.60;;;2.83;;
63201;SDS011;49296;48.188;11.566;2023-07-28T06:13:00;5.65;;;3.05;;
63201;SDS011;49296;48.188;11.566;2023-07-28T06:15:27;5.53;;;3.05;;
63201;SDS011;49296;48.188;11.566;2023-07-28T06:17:55;4.45;;;2.90;;
63201;SDS011;49296;48.188;11.566;2023-07-28T06:20:22;5.22;;;2.60;;
63201;SDS011;49296;48.188;11.566;2023-07-28T06:22:49;4.55;;;2.60;;
63201;SDS011;49296;48.188;11.566;2023-07-28T06:25:16;5.63;;;2.65;;
63201;SDS011;49296;48.188;11.566;2023-07-28T06:27:42;4.63;;;2.38;;
63201;SDS011;49296;48.188;11.566;2023-07-28T06:30:09;4.25;;;2.65;;
63201;SDS011;49296;48.188;11.566;2023-07-28T06:32:36;4.95;;;2.58;;
63201;SDS011;49296;48.188;11.566;2023-07-28T06:35:05;4.80;;;2.83;;
63201;SDS011;49296;48.188;11.566;2023-07-28T06:37:34;6.75;;;2.80;;
63201;SDS011;49296;48.188;11.566;2023-07-28T06:40:02;6.82;;;2.85;;
63201;SDS011;49296;48.188;11.566;2023-07-28T06:42:30;3.83;;;2.22;;
63201;SDS011;49296;48.188;11.566;2023-07-28T06:44:57;5.93;;;3.05;;
63201;SDS011;49296;48.188;11.566;2023-07-28T06:47:23;4.63;;;2.42;;
63201;SDS011;49296;48.188;11.566;2023-07-28T06:49:50;5.93;;;2.60;;
63201;SDS011;49296;48.188;11.566;2023-07-28T06:52:18;5.00;;;2.70;;
63201;SDS011;49296;48.188;11.566;2023-07-28T06:54:44;5.25;;;2.85;;
63201;SDS011;49296;48.188;11.566;2023-07-28T06:57:12;6.25;;;2.80;;
63201;SDS011;49296;48.188;11.566;2023-07-28T06:59:39;5.47;;;2.75;;
63201;SDS011;49296;48.188;11.566;2023-07-28T07:02:05;4.47;;;2.88;;
63201;SDS011;49296;48.188;11.566;2023-07-28T07:04:32;5.72;;;3.05;;
63201;SDS011;49296;48.188;11.566;2023-07-28T07:06:58;5.25;;;2.97;;
63201;SDS011;49296;48.188;11.566;2023-07-28T07:09:26;5.13;;;2.67;;
63201;SDS011;49296;48.188;11.566;2023-07-28T07:11:54;3.63;;;2.35;;
63201;SDS011;49296;48.188;11.566;2023-07-28T07:14:21;5.20;;;2.70;;
63201;SDS011;49296;48.188;11.566;2023-07-28T07:16:48;4.60;;;2.72;;
63201;SDS011;49296;48.188;11.566;2023-07-28T07:19:15;5.65;;;2.40;;
63201;SDS011;49296;48.188;11.566;2023-07-28T07:21:41;4.10;;;2.47;;
63201;SDS011;49296;48.188;11.566;2023-07-28T07:24:09;5.88;;;2.50;;
63201;SDS011;49296;48.188;11.566;2023-07-28T07:26:40;5.40;;;2.67;;
63201;SDS011;49296;48.188;11.566;2023-07-28T07:29:06;4.85;;;2.72;;
63201;SDS011;49296;48.188;11.566;2023-07-28T07:31:33;5.18;;;2.88;;
63201;SDS011;49296;48.188;11.566;2023-07-28T07:33:59;4.68;;;2.55;;
63201;SDS011;49296;48.188;11.566;2023-07-28T07:36:26;4.78;;;2.35;;
63201;SDS011;49296;48.188;11.566;2023-07-28T07:38:52;4.68;;;2.60;;
63201;SDS011;49296;48.188;11.566;2023-07-28T07:41:21;5.68;;;2.55;;
63201;SDS011;49296;48.188;11.566;2023-07-28T07:43:51;5.28;;;3.13;;
63201;SDS011;49296;48.188;11.566;2023-07-28T07:46:19;6.25;;;2.75;;
63201;SDS011;49296;48.188;11.566;2023-07-28T07:48:45;5.43;;;2.72;;
63201;SDS011;49296;48.188;11.566;2023-07-28T07:51:13;4.68;;;2.80;;
63201;SDS011;49296;48.188;11.566;2023-07-28T07:53:40;4.72;;;2.90;;
63201;SDS011;49296;48.188;11.566;2023-07-28T07:56:07;6.05;;;3.08;;
63201;SDS011;49296;48.188;11.566;2023-07-28T07:58:33;4.68;;;2.53;;
63201;SDS011;49296;48.188;11.566;2023-07-28T08:01:01;4.60;;;2.65;;
63201;SDS011;49296;48.188;11.566;2023-07-28T08:03:29;4.80;;;2.30;;
63201;SDS011;49296;48.188;11.566;2023-07-28T08:05:56;4.38;;;2.63;;
63201;SDS011;49296;48.188;11.566;2023-07-28T08:08:23;5.60;;;3.08;;
63201;SDS011;49296;48.188;11.566;2023-07-28T08:10:52;4.40;;;2.30;;
63201;SDS011;49296;48.188;11.566;2023-07-28T08:13:18;5.63;;;2.60;;
63201;SDS011;49296;48.188;11.566;2023-07-28T08:15:45;4.75;;;2.40;;
63201;SDS011;49296;48.188;11.566;2023-07-28T08:18:14;5.35;;;2.50;;
63201;SDS011;49296;48.188;11.566;2023-07-28T08:20:41;5.07;;;2.58;;
63201;SDS011;49296;48.188;11.566;2023-07-28T08:23:07;4.72;;;2.30;;
63201;SDS011;49296;48.188;11.566;2023-07-28T08:25:34;5.22;;;2.60;;
63201;SDS011;49296;48.188;11.566;2023-07-28T08:28:01;6.25;;;2.28;;
63201;SDS011;49296;48.188;11.566;2023-07-28T08:30:28;5.05;;;2.53;;
63201;SDS011;49296;48.188;11.566;2023-07-28T08:32:55;4.53;;;2.40;;
63201;SDS011;49296;48.188;11.566;2023-07-28T08:35:23;4.00;;;2.15;;
63201;SDS011;49296;48.188;11.566;2023-07-28T08:37:50;4.60;;;2.47;;
63201;SDS011;49296;48.188;11.566;2023-07-28T08:40:16;5.88;;;2.83;;
63201;SDS011;49296;48.188;11.566;2023-07-28T08:42:44;4.32;;;2.78;;
63201;SDS011;49296;48.188;11.566;2023-07-28T08:45:11;4.80;;;2.35;;
63201;SDS011;49296;48.188;11.566;2023-07-28T08:47:38;4.30;;;2.20;;
63201;SDS011;49296;48.188;11.566;2023-07-28T08:50:05;5.25;;;2.55;;
63201;SDS011;49296;48.188;11.566;2023-07-28T08:52:33;3.55;;;2.10;;
63201;SDS011;49296;48.188;11.566;2023-07-28T08:55:00;3.88;;;2.05;;
63201;SDS011;49296;48.188;11.566;2023-07-28T08:57:26;3.58;;;2.10;;
63201;SDS011;49296;48.188;11.566;2023-07-28T08:59:54;4.40;;;2.58;;
63201;SDS011;49296;48.188;11.566;2023-07-28T09:02:21;4.97;;;2.20;;
63201;SDS011;49296;48.188;11.566;2023-07-28T09:04:48;4.78;;;2.72;;
63201;SDS011;49296;48.188;11.566;2023-07-28T09:07:15;5.55;;;2.22;;
63201;SDS011;49296;48.188;11.566;2023-07-28T09:09:43;4.80;;;2.58;;
63201;SDS011;49296;48.188;11.566;2023-07-28T09:12:11;3.97;;;2.35;;
63201;SDS011;49296;48.188;11.566;2023-07-28T09:14:38;6.32;;;2.17;;
63201;SDS011;49296;48.188;11.566;2023-07-28T09:17:08;4.18;;;1.98;;
63201;SDS011;49296;48.188;11.566;2023-07-28T09:19:48;5.38;;;2.80;;
63201;SDS011;49296;48.188;11.566;2023-07-28T09:22:17;4.40;;;2.15;;
63201;SDS011;49296;48.188;11.566;2023-07-28T09:24:45;5.00;;;2.45;;
63201;SDS011;49296;48.188;11.566;2023-07-28T09:27:19;4.75;;;2.30;;
63201;SDS011;49296;48.188;11.566;2023-07-28T09:29:47;4.45;;;2.10;;
63201;SDS011;49296;48.188;11.566;2023-07-28T09:32:14;4.85;;;2.60;;
63201;SDS011;49296;48.188;11.566;2023-07-28T09:34:40;4.60;;;2.53;;
63201;SDS011;49296;48.188;11.566;2023-07-28T09:37:07;4.30;;;2.30;;
63201;SDS011;49296;48.188;11.566;2023-07-28T09:39:36;4.60;;;2.30;;
63201;SDS011;49296;48.188;11.566;2023-07-28T09:42:04;4.43;;;2.30;;
63201;SDS011;49296;48.188;11.566;2023-07-28T09:44:34;5.57;;;2.40;;
63201;SDS011;49296;48.188;11.566;2023-07-28T09:47:01;3.83;;;2.28;;
63201;SDS011;49296;48.188;11.566;2023-07-28T09:49:28;4.05;;;2.00;;
63201;SDS011;49296;48.188;11.566;2023-07-28T09:52:02;5.25;;;3.10;;
63201;SDS011;49296;48.188;11.566;2023-07-28T09:54:30;4.90;;;2.17;;
63201;SDS011;49296;48.188;11.566;2023-07-28T09:57:01;3.83;;;2.00;;
63201;SDS011;49296;48.188;11.566;2023-07-28T09:59:35;4.55;;;2.50;;
63201;SDS011;49296;48.188;11.566;2023-07-28T10:02:04;5.47;;;2.30;;
63201;SDS011;49296;48.188;11.566;2023-07-28T10:04:31;4.03;;;2.28;;
63201;SDS011;49296;48.188;11.566;2023-07-28T10:06:59;5.70;;;2.25;;
63201;SDS011;49296;48.188;11.566;2023-07-28T10:09:27;5.40;;;2.42;;
63201;SDS011;49296;48.188;11.566;2023-07-28T10:11:55;4.22;;;2.20;;
63201;SDS011;49296;48.188;11.566;2023-07-28T10:14:27;6.25;;;3.20;;
63201;SDS011;49296;48.188;11.566;2023-07-28T10:16:55;4.47;;;2.47;;
63201;SDS011;49296;48.188;11.566;2023-07-28T10:19:24;4.90;;;2.20;;
63201;SDS011;49296;48.188;11.566;2023-07-28T10:21:58;3.95;;;2.25;;
63201;SDS011;49296;48.188;11.566;2023-07-28T10:27:28;4.65;;;2.40;;
63201;SDS011;49296;48.188;11.566;2023-07-28T10:30:03;3.92;;;2.22;;
63201;SDS011;49296;48.188;11.566;2023-07-28T10:32:36;4.95;;;2.60;;
63201;SDS011;49296;48.188;11.566;2023-07-28T10:35:06;4.43;;;2.15;;
63201;SDS011;49296;48.188;11.566;2023-07-28T10:37:34;3.95;;;2.13;;
63201;SDS011;49296;48.188;11.566;2023-07-28T10:42:52;3.70;;;2.00;;
63201;SDS011;49296;48.188;11.566;2023-07-28T10:45:23;4.70;;;2.10;;
63201;SDS011;49296;48.188;11.566;2023-07-28T10:47:52;4.75;;;2.40;;
63201;SDS011;49296;48.188;11.566;2023-07-28T10:50:20;4.78;;;2.40;;
63201;SDS011;49296;48.188;11.566;2023-07-28T10:52:47;4.43;;;2.35;;
63201;SDS011;49296;48.188;11.566;2023-07-28T10:55:14;4.65;;;2.30;;
63201;SDS011;49296;48.188;11.566;2023-07-28T10:57:44;4.07;;;2.33;;
63201;SDS011;49296;48.188;11.566;2023-07-28T11:00:13;5.40;;;2.60;;
63201;SDS011;49296;48.188;11.566;2023-07-28T11:02:43;6.45;;;2.72;;
63201;SDS011;49296;48.188;11.566;2023-07-28T11:05:11;4.57;;;2.30;;
63201;SDS011;49296;48.188;11.566;2023-07-28T11:10:09;6.10;;;3.07;;
63201;SDS011;49296;48.188;11.566;2023-07-28T11:12:39;5.38;;;2.33;;
63201;SDS011;49296;48.188;11.566;2023-07-28T11:15:09;5.32;;;2.50;;
63201;SDS011;49296;48.188;11.566;2023-07-28T11:17:37;4.97;;;2.72;;
63201;SDS011;49296;48.188;11.566;2023-07-28T11:20:09;4.55;;;2.25;;
63201;SDS011;49296;48.188;11.566;2023-07-28T11:22:41;4.60;;;2.40;;
63201;SDS011;49296;48.188;11.566;2023-07-28T11:25:08;4.32;;;2.10;;
63201;SDS011;49296;48.188;11.566;2023-07-28T11:27:35;4.95;;;2.35;;
63201;SDS011;49296;48.188;11.566;2023-07-28T11:30:02;4.63;;;2.50;;
63201;SDS011;49296;48.188;11.566;2023-07-28T11:32:30;5.15;;;2.63;;
63201;SDS011;49296;48.188;11.566;2023-07-28T11:35:02;4.65;;;2.30;;
63201;SDS011;49296;48.188;11.566;2023-07-28T11:37:31;4.93;;;2.25;;
63201;SDS011;49296;48.188;11.566;2023-07-28T11:39:59;3.80;;;2.13;;
63201;SDS011;49296;48.188;11.566;2023-07-28T11:42:27;4.43;;;2.33;;
63201;SDS011;49296;48.188;11.566;2023-07-28T11:44:55;4.80;;;2.58;;
63201;SDS011;49296;48.188;11.566;2023-07-28T11:47:21;5.97;;;2.97;;
63201;SDS011;49296;48.188;11.566;2023-07-28T11:49:48;4.25;;;2.25;;
63201;SDS011;49296;48.188;11.566;2023-07-28T11:52:16;5.47;;;2.50;;
63201;SDS011;49296;48.188;11.566;2023-07-28T11:54:44;4.80;;;2.75;;
63201;SDS011;49296;48.188;11.566;2023-07-28T11:57:11;4.25;;;2.20;;
63201;SDS011;49296;48.188;11.566;2023-07-28T11:59:39;4.75;;;2.65;;
63201;SDS011;49296;48.188;11.566;2023-07-28T12:02:06;5.55;;;2.70;;
63201;SDS011;49296;48.188;11.566;2023-07-28T12:04:35;4.32;;;2.50;;
63201;SDS011;49296;48.188;11.566;2023-07-28T12:07:03;4.35;;;2.45;;
63201;SDS011;49296;48.188;11.566;2023-07-28T12:09:31;4.28;;;2.40;;
63201;SDS011;49296;48.188;11.566;2023-07-28T12:11:59;4.50;;;2.35;;
63201;SDS011;49296;48.188;11.566;2023-07-28T12:14:32;3.63;;;2.08;;
63201;SDS011;49296;48.188;11.566;2023-07-28T12:17:00;3.90;;;2.20;;
63201;SDS011;49296;48.188;11.566;2023-07-28T12:19:27;3.72;;;2.20;;
63201;SDS011;49296;48.188;11.566;2023-07-28T12:21:56;4.07;;;2.60;;
63201;SDS011;49296;48.188;11.566;2023-07-28T12:24:25;5.47;;;2.35;;
63201;SDS011;49296;48.188;11.566;2023-07-28T12:26:52;4.15;;;2.47;;
63201;SDS011;49296;48.188;11.566;2023-07-28T12:29:27;4.15;;;2.20;;
63201;SDS011;49296;48.188;11.566;2023-07-28T12:31:54;4.13;;;2.45;;
63201;SDS011;49296;48.188;11.566;2023-07-28T12:34:20;5.00;;;2.58;;
63201;SDS011;49296;48.188;11.566;2023-07-28T12:36:47;4.43;;;2.58;;
63201;SDS011;49296;48.188;11.566;2023-07-28T12:39:16;6.72;;;2.45;;
63201;SDS011;49296;48.188;11.566;2023-07-28T12:41:45;4.78;;;2.80;;
63201;SDS011;49296;48.188;11.566;2023-07-28T12:44:11;4.45;;;2.65;;
63201;SDS011;49296;48.188;11.566;2023-07-28T12:46:40;4.63;;;2.50;;
63201;SDS011;49296;48.188;11.566;2023-07-28T12:49:06;4.82;;;2.47;;
63201;SDS011;49296;48.188;11.566;2023-07-28T12:51:34;4.50;;;2.65;;
63201;SDS011;49296;48.188;11.566;2023-07-28T12:54:01;5.82;;;2.70;;
63201;SDS011;49296;48.188;11.566;2023-07-28T12:56:27;5.07;;;2.50;;
63201;SDS011;49296;48.188;11.566;2023-07-28T12:58:54;4.97;;;2.70;;
63201;SDS011;49296;48.188;11.566;2023-07-28T13:01:24;5.28;;;2.55;;
63201;SDS011;49296;48.188;11.566;2023-07-28T13:03:52;4.50;;;2.47;;
63201;SDS011;49296;48.188;11.566;2023-07-28T13:06:22;3.97;;;2.45;;
63201;SDS011;49296;48.188;11.566;2023-07-28T13:08:49;4.47;;;2.63;;
63201;SDS011;49296;48.188;11.566;2023-07-28T13:11:15;5.18;;;2.90;;
63201;SDS011;49296;48.188;11.566;2023-07-28T13:13:42;4.75;;;2.70;;
63201;SDS011;49296;48.188;11.566;2023-07-28T13:16:08;4.25;;;2.38;;
63201;SDS011;49296;48.188;11.566;2023-07-28T13:18:35;5.28;;;2.45;;
63201;SDS011;49296;48.188;11.566;2023-07-28T13:21:03;4.35;;;2.22;;
63201;SDS011;49296;48.188;11.566;2023-07-28T13:23:34;4.72;;;2.67;;
63201;SDS011;49296;48.188;11.566;2023-07-28T13:28:29;4.82;;;2.38;;
63201;SDS011;49296;48.188;11.566;2023-07-28T13:30:56;5.13;;;2.60;;
63201;SDS011;49296;48.188;11.566;2023-07-28T13:33:22;4.20;;;2.58;;
63201;SDS011;49296;48.188;11.566;2023-07-28T13:35:49;4.13;;;2.47;;
63201;SDS011;49296;48.188;11.566;2023-07-28T13:38:17;6.15;;;2.60;;
63201;SDS011;49296;48.188;11.566;2023-07-28T13:40:44;4.22;;;2.55;;
63201;SDS011;49296;48.188;11.566;2023-07-28T13:43:10;5.15;;;2.50;;
63201;SDS011;49296;48.188;11.566;2023-07-28T13:45:37;5.13;;;2.70;;
63201;SDS011;49296;48.188;11.566;2023-07-28T13:48:04;5.07;;;2.75;;
63201;SDS011;49296;48.188;11.566;2023-07-28T13:50:30;5.15;;;2.58;;
63201;SDS011;49296;48.188;11.566;2023-07-28T13:52:57;4.28;;;2.63;;
63201;SDS011;49296;48.188;11.566;2023-07-28T13:55:25;5.72;;;2.72;;
63201;SDS011;49296;48.188;11.566;2023-07-28T14:00:20;5.20;;;2.72;;
63201;SDS011;49296;48.188;11.566;2023-07-28T14:02:47;4.78;;;2.60;;
63201;SDS011;49296;48.188;11.566;2023-07-28T14:05:16;4.95;;;2.80;;
63201;SDS011;49296;48.188;11.566;2023-07-28T14:07:44;4.50;;;2.70;;
63201;SDS011;49296;48.188;11.566;2023-07-28T14:10:11;5.35;;;2.90;;
63201;SDS011;49296;48.188;11.566;2023-07-28T14:12:39;5.15;;;3.00;;
63201;SDS011;49296;48.188;11.566;2023-07-28T14:15:06;4.85;;;2.50;;
63201;SDS011;49296;48.188;11.566;2023-07-28T14:17:34;4.70;;;2.58;;
63201;SDS011;49296;48.188;11.566;2023-07-28T14:20:00;5.00;;;2.85;;
63201;SDS011;49296;48.188;11.566;2023-07-28T14:22:27;4.45;;;2.72;;
63201;SDS011;49296;48.188;11.566;2023-07-28T14:24:53;5.30;;;2.50;;
63201;SDS011;49296;48.188;11.566;2023-07-28T14:27:20;4.38;;;2.60;;
63201;SDS011;49296;48.188;11.566;2023-07-28T14:29:48;4.57;;;2.53;;
63201;SDS011;49296;48.188;11.566;2023-07-28T14:32:14;5.05;;;3.10;;
63201;SDS011;49296;48.188;11.566;2023-07-28T14:34:41;5.90;;;2.80;;
63201;SDS011;49296;48.188;11.566;2023-07-28T14:37:08;4.32;;;2.70;;
63201;SDS011;49296;48.188;11.566;2023-07-28T14:39:36;5.63;;;2.97;;
63201;SDS011;49296;48.188;11.566;2023-07-28T14:42:03;5.68;;;2.90;;
63201;SDS011;49296;48.188;11.566;2023-07-28T14:44:33;5.00;;;2.80;;
63201;SDS011;49296;48.188;11.566;2023-07-28T14:47:01;4.50;;;2.63;;